Atwater, California
Current Conditions -  °F | °C
As of 1:45 PM on Saturday 25 Oct 2014 (Local Time) from KMER Reporting Station
Overcast Overcast  
Wind Chill: 70°   Ceiling: 6500
Heat Index: 70°   Visibility: 10mi
Dew Point: 55°   Wind: 21mph
Humidity: 60%   Direction: 300°WNW
Pressure: 30.07"   Gusts: 28mph
Location:  37.35°N, 120.6°W
Report Text: KMER 252045Z 30018G24KT 10SM OVC065 21/13 A3007
Loading
Personal Weather Stations






























Interactive Weather Map New forecast layout! Learn more

10-Day Weather Forecast

Advertisements
Track Severe Weather on mobile